Time;durP1;ratioP1;P1;durP2;ratioP2;P2;SDS_P1;SDS_P2;PMS_P1;PMS_P2;Temp;Humidity;BMP_temperature;BMP_pressure;BME280_temperature;BME280_humidity;BME280_pressure;Samples;Min_cycle;Max_cycle;Signal;HPM_P1;HPM_P2
2023/03/10 00:01:12;;;;;;;0.50;0.40;;;9.40;99.90;;;;;;5058854;28;20281;-80
2023/03/10 00:03:39;;;;;;;0.60;0.57;;;9.40;99.90;;;;;;5059040;28;20297;-81
2023/03/10 00:06:07;;;;;;;0.40;0.30;;;9.40;99.90;;;;;;5058257;28;20221;-79
2023/03/10 00:08:34;;;;;;;0.40;0.40;;;9.40;99.90;;;;;;5058328;28;20198;-80
2023/03/10 00:11:01;;;;;;;0.47;0.40;;;9.40;99.90;;;;;;5058783;28;20224;-80
2023/03/10 00:13:28;;;;;;;1.67;1.58;;;9.40;99.90;;;;;;5058901;28;20305;-79
2023/03/10 00:15:56;;;;;;;0.60;0.40;;;9.40;99.90;;;;;;5058556;28;20569;-80
2023/03/10 00:18:23;;;;;;;6.15;4.07;;;9.40;99.90;;;;;;5058558;28;20780;-81
2023/03/10 00:20:51;;;;;;;0.77;0.50;;;9.40;99.90;;;;;;5052185;28;20294;-80
2023/03/10 00:23:18;;;;;;;0.73;0.73;;;9.40;99.90;;;;;;5030901;28;20211;-78
2023/03/10 00:25:45;;;;;;;4.30;1.95;;;9.40;99.90;;;;;;5054577;28;20282;-79
2023/03/10 00:28:12;;;;;;;2.03;1.38;;;9.40;99.90;;;;;;5050189;28;20209;-81
2023/03/10 00:30:40;;;;;;;5.18;1.80;;;9.40;99.90;;;;;;5058033;28;20222;-80
2023/03/10 00:33:08;;;;;;;0.45;0.38;;;9.50;99.90;;;;;;5058119;28;20635;-79
2023/03/10 00:35:34;;;;;;;4.13;0.98;;;9.40;99.90;;;;;;5058697;28;20673;-79
2023/03/10 00:38:02;;;;;;;0.75;0.75;;;9.40;99.90;;;;;;5057145;28;20221;-81
2023/03/10 00:40:29;;;;;;;9.90;1.95;;;9.40;99.90;;;;;;5058203;28;20215;-79
2023/03/10 00:42:58;;;;;;;0.70;0.68;;;9.50;99.90;;;;;;5040498;28;20253;-79
2023/03/10 00:45:25;;;;;;;0.50;0.40;;;9.50;99.90;;;;;;5037780;28;20192;-80
2023/03/10 00:47:51;;;;;;;0.65;0.65;;;9.50;99.90;;;;;;5038290;28;20191;-79
2023/03/10 00:50:20;;;;;;;2.47;1.15;;;9.50;99.90;;;;;;5033971;28;20698;-80
2023/03/10 00:52:46;;;;;;;4.40;1.52;;;9.50;99.90;;;;;;5057625;28;20199;-80
2023/03/10 00:55:13;;;;;;;1.13;1.02;;;9.50;99.90;;;;;;5057344;28;20198;-79
2023/03/10 00:57:40;;;;;;;0.70;0.65;;;9.50;99.90;;;;;;5056387;28;20191;-78
2023/03/10 01:00:09;;;;;;;1.45;1.30;;;9.50;99.90;;;;;;5057521;28;20804;-80
2023/03/10 01:02:36;;;;;;;4.72;2.13;;;9.50;99.90;;;;;;5056007;28;20240;-80
2023/03/10 01:05:03;;;;;;;1.55;1.00;;;9.60;99.90;;;;;;5056826;28;20648;-80
2023/03/10 01:07:31;;;;;;;6.35;1.33;;;9.60;99.90;;;;;;5042363;28;20187;-81
2023/03/10 01:09:57;;;;;;;4.30;1.25;;;9.60;99.90;;;;;;5044935;28;20217;-82
2023/03/10 01:12:24;;;;;;;0.65;0.65;;;9.60;99.90;;;;;;5056083;28;20195;-80
2023/03/10 01:14:51;;;;;;;0.80;0.80;;;9.60;99.90;;;;;;5056117;28;20278;-80
2023/03/10 01:17:18;;;;;;;1.38;0.90;;;9.60;99.90;;;;;;5055899;28;20692;-81
2023/03/10 01:19:45;;;;;;;0.75;0.75;;;9.60;99.90;;;;;;5055190;28;20245;-81
2023/03/10 01:22:11;;;;;;;0.50;0.50;;;9.60;99.90;;;;;;5056102;28;20693;-79
2023/03/10 01:24:40;;;;;;;0.60;0.47;;;9.50;99.90;;;;;;5055779;28;20219;-81
2023/03/10 01:27:06;;;;;;;7.80;1.25;;;9.50;99.90;;;;;;5056187;28;20283;-81
2023/03/10 01:29:33;;;;;;;0.80;0.80;;;9.50;99.90;;;;;;5055272;28;20222;-79
2023/03/10 01:32:00;;;;;;;0.50;0.40;;;9.40;99.90;;;;;;5055452;28;20187;-81
2023/03/10 01:34:27;;;;;;;0.50;0.43;;;9.40;99.90;;;;;;5056006;28;20619;-81
2023/03/10 01:36:54;;;;;;;0.50;0.40;;;9.40;99.90;;;;;;5055595;28;20611;-80
2023/03/10 01:39:20;;;;;;;0.73;0.73;;;9.40;99.90;;;;;;5039379;28;20269;-79
2023/03/10 01:41:49;;;;;;;0.50;0.50;;;9.40;99.90;;;;;;5055558;28;20191;-81
2023/03/10 01:44:17;;;;;;;0.50;0.50;;;9.40;99.90;;;;;;5054789;28;20220;-81
2023/03/10 01:46:49;;;;;;;0.50;0.50;;;9.30;99.90;;;;;;5055231;28;20277;-81
2023/03/10 01:49:27;;;;;;;0.50;0.50;;;9.30;99.90;;;;;;5055532;28;20684;-81
2023/03/10 01:52:00;;;;;;;0.50;0.40;;;9.30;99.90;;;;;;5055342;28;20194;-80
2023/03/10 01:54:31;;;;;;;0.50;0.50;;;9.30;99.90;;;;;;5055738;28;20566;-81
2023/03/10 01:56:59;;;;;;;0.98;0.98;;;9.30;99.90;;;;;;5056818;28;20198;-79
2023/03/10 01:59:27;;;;;;;0.50;0.50;;;9.30;99.90;;;;;;5056353;28;20195;-80
2023/03/10 02:01:55;;;;;;;0.50;0.47;;;9.20;99.90;;;;;;5056917;28;20187;-80
2023/03/10 02:04:26;;;;;;;0.50;0.40;;;9.20;99.90;;;;;;5056159;28;20221;-79
2023/03/10 02:06:55;;;;;;;1.55;0.82;;;9.20;99.90;;;;;;5055521;28;20190;-81
2023/03/10 02:09:22;;;;;;;1.50;1.40;;;9.20;99.90;;;;;;5055531;28;20187;-79
2023/03/10 02:11:50;;;;;;;0.40;0.40;;;9.20;99.90;;;;;;5056281;28;20194;-80
2023/03/10 02:14:18;;;;;;;0.45;0.40;;;9.20;99.90;;;;;;5053654;28;20208;-80
2023/03/10 02:16:46;;;;;;;1.13;0.68;;;9.20;99.90;;;;;;5051865;28;20197;-80
2023/03/10 02:19:34;;;;;;;2.05;0.50;;;9.20;99.90;;;;;;5055800;28;20606;-78
2023/03/10 02:22:06;;;;;;;0.70;0.70;;;9.30;99.90;;;;;;5054581;28;20229;-79
2023/03/10 02:24:41;;;;;;;2.08;0.60;;;9.20;99.90;;;;;;5056305;28;20628;-81
2023/03/10 02:27:29;;;;;;;0.70;0.40;;;9.20;99.90;;;;;;5056359;28;20191;-80
2023/03/10 02:30:01;;;;;;;0.95;0.95;;;9.20;99.90;;;;;;5055925;28;20656;-80
2023/03/10 02:32:31;;;;;;;1.10;1.10;;;9.20;99.90;;;;;;5029289;28;20191;-81
2023/03/10 02:34:58;;;;;;;0.45;0.40;;;9.20;99.90;;;;;;5044557;28;20182;-79
2023/03/10 02:37:28;;;;;;;1.20;1.20;;;9.20;99.90;;;;;;5031895;28;20214;-77
2023/03/10 02:39:56;;;;;;;1.13;1.02;;;9.20;99.90;;;;;;5056598;28;20619;-79
2023/03/10 02:42:25;;;;;;;0.70;0.70;;;9.20;99.90;;;;;;5056267;28;20194;-82
2023/03/10 02:44:54;;;;;;;1.25;0.90;;;9.20;99.90;;;;;;5056646;28;20207;-80
2023/03/10 02:47:21;;;;;;;1.10;1.10;;;9.20;99.90;;;;;;5053128;28;20225;-81
2023/03/10 02:49:48;;;;;;;4.10;2.95;;;9.20;99.90;;;;;;5051423;28;20238;-80
2023/03/10 02:52:25;;;;;;;2.70;2.25;;;9.20;99.90;;;;;;5055676;28;20190;-80
2023/03/10 02:54:52;;;;;;;4.95;2.35;;;9.20;99.90;;;;;;5056213;28;20281;-80
2023/03/10 02:57:19;;;;;;;3.30;3.00;;;9.20;99.90;;;;;;5037498;28;20233;-80
2023/03/10 02:59:45;;;;;;;1.00;0.85;;;9.20;99.90;;;;;;5036005;28;20279;-80
2023/03/10 03:02:14;;;;;;;2.05;1.95;;;9.20;99.90;;;;;;5036776;28;20258;-80
2023/03/10 03:04:40;;;;;;;1.95;1.58;;;9.20;99.90;;;;;;5041392;28;20218;-79
2023/03/10 03:07:07;;;;;;;2.20;1.60;;;9.20;99.90;;;;;;5055611;28;20191;-79
2023/03/10 03:09:34;;;;;;;3.83;3.53;;;9.20;99.90;;;;;;5051242;28;20207;-79
2023/03/10 03:12:01;;;;;;;0.60;0.60;;;9.20;99.90;;;;;;5036250;28;20201;-79
2023/03/10 03:14:28;;;;;;;1.08;1.08;;;9.20;99.90;;;;;;5036611;28;20190;-80
2023/03/10 03:16:55;;;;;;;2.05;0.75;;;9.30;99.90;;;;;;5036379;28;20195;-80
2023/03/10 03:19:23;;;;;;;0.93;0.93;;;9.30;99.90;;;;;;5035162;28;20199;-79
2023/03/10 03:21:50;;;;;;;1.05;1.05;;;9.30;99.90;;;;;;5037735;28;20197;-80
2023/03/10 03:24:19;;;;;;;1.05;1.05;;;9.20;99.90;;;;;;5038612;28;20306;-80
2023/03/10 03:26:46;;;;;;;1.20;1.10;;;9.30;99.90;;;;;;5037149;28;20646;-80
2023/03/10 03:29:14;;;;;;;3.45;1.58;;;9.30;99.90;;;;;;5038194;28;20206;-78
2023/03/10 03:31:41;;;;;;;1.38;1.33;;;9.30;99.90;;;;;;5038672;28;20199;-80
2023/03/10 03:34:07;;;;;;;0.70;0.70;;;9.30;99.90;;;;;;5038366;28;20278;-81
2023/03/10 03:36:36;;;;;;;0.80;0.57;;;9.30;99.90;;;;;;5038094;28;20195;-80
2023/03/10 03:39:05;;;;;;;2.97;1.95;;;9.30;99.90;;;;;;5038388;28;20677;-79
2023/03/10 03:41:32;;;;;;;0.93;0.93;;;9.30;99.90;;;;;;5038877;28;20590;-80
2023/03/10 03:43:59;;;;;;;2.90;1.60;;;9.30;99.90;;;;;;5038131;28;20212;-80
2023/03/10 03:46:26;;;;;;;1.35;1.25;;;9.30;99.90;;;;;;5038200;28;20195;-80
2023/03/10 03:48:52;;;;;;;1.65;1.55;;;9.30;99.90;;;;;;5038111;28;20278;-80
2023/03/10 03:51:19;;;;;;;0.93;0.60;;;9.30;99.90;;;;;;5038043;28;20582;-79
2023/03/10 03:53:47;;;;;;;3.55;0.95;;;9.30;99.90;;;;;;5037821;28;20194;-80
2023/03/10 03:56:14;;;;;;;0.70;0.50;;;9.30;99.90;;;;;;5038316;28;20358;-81
2023/03/10 03:58:41;;;;;;;2.65;2.45;;;9.30;99.90;;;;;;5037618;28;20581;-80
2023/03/10 04:01:08;;;;;;;1.08;0.95;;;9.40;99.90;;;;;;5037650;28;20215;-80
2023/03/10 04:03:35;;;;;;;4.70;1.45;;;9.40;99.90;;;;;;5037657;28;20279;-80
2023/03/10 04:06:02;;;;;;;0.40;0.35;;;9.40;99.90;;;;;;5038213;28;20234;-80
2023/03/10 04:08:29;;;;;;;0.40;0.30;;;9.40;99.90;;;;;;5038157;28;20623;-80
2023/03/10 04:10:57;;;;;;;1.05;1.05;;;9.40;99.90;;;;;;5038250;28;20298;-81
2023/03/10 04:13:24;;;;;;;0.65;0.65;;;9.40;99.90;;;;;;5038028;28;20203;-80
2023/03/10 04:15:55;;;;;;;0.40;0.40;;;9.40;99.90;;;;;;5037991;28;20191;-81
2023/03/10 04:18:22;;;;;;;0.50;0.40;;;9.50;99.90;;;;;;5038233;28;20206;-80
2023/03/10 04:20:49;;;;;;;0.40;0.40;;;9.50;99.90;;;;;;5038253;28;20297;-80
2023/03/10 04:23:16;;;;;;;0.40;0.35;;;9.50;99.90;;;;;;5037592;28;20235;-81
2023/03/10 04:25:43;;;;;;;0.40;0.40;;;9.50;99.90;;;;;;5037411;28;20676;-81
2023/03/10 04:28:11;;;;;;;0.60;0.50;;;9.40;99.90;;;;;;5037181;28;20554;-80
2023/03/10 04:30:41;;;;;;;0.40;0.40;;;9.40;99.90;;;;;;5036929;28;20305;-79
2023/03/10 04:33:10;;;;;;;0.85;0.70;;;9.40;99.90;;;;;;5036419;28;20722;-80
2023/03/10 04:35:39;;;;;;;0.60;0.60;;;9.30;99.90;;;;;;5036232;28;20563;-79
2023/03/10 04:38:06;;;;;;;0.50;0.40;;;9.30;99.90;;;;;;5053561;28;20190;-80
2023/03/10 04:40:33;;;;;;;2.45;1.70;;;9.20;99.90;;;;;;5037347;28;20211;-79
2023/03/10 04:43:00;;;;;;;0.50;0.50;;;9.20;99.90;;;;;;5053768;28;20201;-78
2023/03/10 04:45:29;;;;;;;2.05;1.00;;;9.10;99.90;;;;;;5054566;28;20215;-79
2023/03/10 04:47:55;;;;;;;0.50;0.43;;;9.10;99.90;;;;;;5045017;28;20288;-79
2023/03/10 04:50:22;;;;;;;0.50;0.40;;;9.10;99.90;;;;;;5058462;28;20218;-79
2023/03/10 04:52:49;;;;;;;0.40;0.30;;;9.10;99.90;;;;;;5058036;28;20289;-79
2023/03/10 04:55:17;;;;;;;0.50;0.40;;;9.10;99.90;;;;;;5049772;28;20196;-79
2023/03/10 04:57:44;;;;;;;0.55;0.55;;;9.10;99.90;;;;;;5052467;28;20187;-79
2023/03/10 05:00:12;;;;;;;0.60;0.55;;;9.10;99.90;;;;;;5053583;28;20705;-79
2023/03/10 05:02:41;;;;;;;0.50;0.40;;;9.10;99.90;;;;;;5053675;28;20199;-79
2023/03/10 05:05:08;;;;;;;0.40;0.40;;;9.10;99.90;;;;;;5036876;28;20207;-79
2023/03/10 05:07:35;;;;;;;0.40;0.40;;;9.00;99.90;;;;;;5053544;28;20253;-79
2023/03/10 05:10:02;;;;;;;0.70;0.70;;;9.00;99.90;;;;;;5046517;28;20214;-81
2023/03/10 05:12:29;;;;;;;0.82;0.82;;;9.00;99.90;;;;;;5055556;28;20608;-79
2023/03/10 05:14:55;;;;;;;0.70;0.70;;;9.10;99.90;;;;;;5053274;28;20273;-79
2023/03/10 05:17:22;;;;;;;0.50;0.47;;;9.00;99.90;;;;;;5055417;28;20262;-80
2023/03/10 05:19:51;;;;;;;1.02;0.93;;;9.00;99.90;;;;;;5039739;28;20215;-79
2023/03/10 05:22:17;;;;;;;0.43;0.40;;;9.00;99.90;;;;;;5038204;28;20259;-78
2023/03/10 05:24:44;;;;;;;0.50;0.40;;;9.00;99.90;;;;;;5049661;28;20590;-81
2023/03/10 05:27:11;;;;;;;1.10;1.10;;;8.90;99.90;;;;;;5056633;28;20195;-79
2023/03/10 05:29:39;;;;;;;0.50;0.50;;;8.90;99.90;;;;;;5056419;28;20214;-79
2023/03/10 05:32:08;;;;;;;0.40;0.40;;;9.00;99.90;;;;;;5055208;28;20672;-79
2023/03/10 05:34:35;;;;;;;0.52;0.52;;;9.00;99.90;;;;;;5027374;28;20669;-80
2023/03/10 05:37:04;;;;;;;0.40;0.40;;;9.00;99.90;;;;;;5035594;28;20197;-79
2023/03/10 05:39:30;;;;;;;0.50;0.40;;;8.90;99.90;;;;;;5035130;28;20249;-79
2023/03/10 05:41:57;;;;;;;0.50;0.40;;;8.90;99.90;;;;;;5049963;28;20681;-79
2023/03/10 05:44:24;;;;;;;0.50;0.50;;;8.90;99.90;;;;;;5053248;28;20289;-77
2023/03/10 05:46:51;;;;;;;1.15;1.05;;;8.90;99.90;;;;;;5054141;28;20202;-78
2023/03/10 05:49:18;;;;;;;0.50;0.40;;;8.90;99.90;;;;;;5055697;28;20285;-80
2023/03/10 05:51:44;;;;;;;0.40;0.38;;;8.80;99.90;;;;;;5052601;28;20266;-79
2023/03/10 05:54:13;;;;;;;0.40;0.40;;;8.80;99.90;;;;;;5054026;28;20285;-79
2023/03/10 05:56:40;;;;;;;0.40;0.40;;;8.70;99.90;;;;;;5055978;28;20661;-82
2023/03/10 05:59:07;;;;;;;0.45;0.40;;;8.70;99.90;;;;;;5056298;28;20197;-80
2023/03/10 06:01:34;;;;;;;0.45;0.40;;;8.70;99.90;;;;;;5045735;28;20306;-77
2023/03/10 06:04:00;;;;;;;3.60;1.25;;;8.70;99.90;;;;;;5037126;28;20198;-81
2023/03/10 06:06:27;;;;;;;0.60;0.60;;;8.70;99.90;;;;;;5036321;28;20330;-80
2023/03/10 06:08:54;;;;;;;0.60;0.50;;;8.70;99.90;;;;;;5036639;28;20191;-80
2023/03/10 06:11:23;;;;;;;0.60;0.50;;;8.70;99.90;;;;;;5032347;28;20300;-80
2023/03/10 06:13:50;;;;;;;0.60;0.60;;;8.80;99.90;;;;;;5046109;28;20196;-81
2023/03/10 06:16:17;;;;;;;1.30;0.50;;;8.80;99.90;;;;;;5035266;28;20187;-79
2023/03/10 06:18:43;;;;;;;2.92;1.55;;;8.90;99.90;;;;;;5034060;28;20218;-80
2023/03/10 06:21:13;;;;;;;0.80;0.80;;;8.90;99.90;;;;;;5034070;28;20293;-79
2023/03/10 06:23:41;;;;;;;1.35;1.25;;;8.90;99.90;;;;;;5043021;28;20274;-81
2023/03/10 06:26:11;;;;;;;0.50;0.50;;;8.90;99.90;;;;;;5034751;28;20306;-82
2023/03/10 06:28:41;;;;;;;1.23;1.23;;;8.90;99.90;;;;;;5026498;28;20223;-81
2023/03/10 06:31:12;;;;;;;0.63;0.60;;;8.90;99.90;;;;;;5035104;28;20228;-81
2023/03/10 06:33:38;;;;;;;3.55;1.55;;;9.00;99.90;;;;;;5035097;28;20211;-81
2023/03/10 06:36:06;;;;;;;6.18;1.75;;;9.00;99.90;;;;;;5037241;28;20231;-79
2023/03/10 06:38:33;;;;;;;0.47;0.40;;;9.10;99.90;;;;;;5034829;28;20237;-80
2023/03/10 06:41:00;;;;;;;7.72;0.90;;;9.10;99.90;;;;;;5035645;28;20640;-79
2023/03/10 06:43:27;;;;;;;1.95;1.60;;;9.20;99.90;;;;;;5034633;28;20674;-81
2023/03/10 06:45:55;;;;;;;2.15;0.93;;;9.20;99.90;;;;;;5035394;28;20203;-79
2023/03/10 06:48:22;;;;;;;0.50;0.40;;;9.20;99.90;;;;;;5045130;28;20254;-79
2023/03/10 06:50:49;;;;;;;1.45;0.80;;;9.30;99.90;;;;;;5055375;28;20257;-80
2023/03/10 06:53:17;;;;;;;0.50;0.40;;;9.20;99.90;;;;;;5055033;28;20258;-79
2023/03/10 06:55:44;;;;;;;1.00;0.47;;;9.20;99.90;;;;;;5033909;28;20188;-81
2023/03/10 06:58:11;;;;;;;2.25;0.82;;;9.20;99.90;;;;;;5035383;28;20680;-81
2023/03/10 07:00:38;;;;;;;0.55;0.55;;;9.20;99.90;;;;;;5035863;28;20207;-82
2023/03/10 07:03:07;;;;;;;0.98;0.98;;;9.20;99.90;;;;;;5035797;28;20187;-80
2023/03/10 07:05:34;;;;;;;0.50;0.40;;;9.30;99.90;;;;;;5038332;28;20306;-81
2023/03/10 07:08:02;;;;;;;0.77;0.45;;;9.30;99.90;;;;;;5048644;28;20226;-80
2023/03/10 07:10:29;;;;;;;3.47;1.63;;;9.30;99.90;;;;;;5035460;28;20229;-82
2023/03/10 07:12:57;;;;;;;0.50;0.40;;;9.30;99.90;;;;;;5049738;28;20193;-81
2023/03/10 07:15:25;;;;;;;1.30;0.95;;;9.30;99.90;;;;;;5056035;28;20616;-79
2023/03/10 07:17:54;;;;;;;0.50;0.40;;;9.30;99.90;;;;;;5045988;28;20182;-82
2023/03/10 07:20:24;;;;;;;0.50;0.40;;;9.40;99.90;;;;;;5055377;28;20221;-81
2023/03/10 07:22:51;;;;;;;3.42;0.50;;;9.40;99.90;;;;;;5034797;28;20195;-83
2023/03/10 07:25:18;;;;;;;0.50;0.40;;;9.40;99.90;;;;;;5034989;28;20211;-80
2023/03/10 07:27:44;;;;;;;0.70;0.70;;;9.50;99.90;;;;;;5035329;28;20601;-80
2023/03/10 07:30:12;;;;;;;0.50;0.40;;;9.60;99.90;;;;;;5035012;28;20223;-81
2023/03/10 07:32:39;;;;;;;0.50;0.40;;;9.60;99.90;;;;;;5043716;28;20231;-81
2023/03/10 07:35:07;;;;;;;0.50;0.40;;;9.70;99.90;;;;;;5035620;28;20282;-80
2023/03/10 07:37:37;;;;;;;0.93;0.82;;;9.80;99.90;;;;;;5050517;28;20190;-80
2023/03/10 07:40:06;;;;;;;0.50;0.40;;;9.70;99.90;;;;;;5043063;28;20290;-79
2023/03/10 07:42:32;;;;;;;1.45;1.35;;;9.60;99.90;;;;;;5046752;28;20286;-81
2023/03/10 07:44:59;;;;;;;0.50;0.40;;;9.60;99.90;;;;;;5056078;28;20657;-80
2023/03/10 07:47:26;;;;;;;0.50;0.40;;;9.60;99.90;;;;;;5046345;28;20305;-77
2023/03/10 07:49:53;;;;;;;0.70;0.57;;;9.50;99.90;;;;;;5054617;28;20211;-82
2023/03/10 07:52:21;;;;;;;0.70;0.68;;;9.50;99.90;;;;;;5046014;28;20196;-80
2023/03/10 07:54:49;;;;;;;0.50;0.50;;;9.50;99.90;;;;;;5046380;28;20187;-83
2023/03/10 07:57:16;;;;;;;0.60;0.57;;;9.50;99.90;;;;;;5055128;28;20282;-81
2023/03/10 07:59:43;;;;;;;2.03;1.15;;;9.40;99.90;;;;;;5025828;28;20243;-81
2023/03/10 08:02:12;;;;;;;1.25;0.73;;;9.40;99.90;;;;;;5033991;28;20192;-80
2023/03/10 08:04:39;;;;;;;0.50;0.50;;;9.40;99.90;;;;;;5053895;28;20194;-81
2023/03/10 08:07:06;;;;;;;1.58;0.93;;;9.40;99.90;;;;;;5055926;28;20218;-80
2023/03/10 08:09:33;;;;;;;2.05;0.82;;;9.40;99.90;;;;;;5047377;28;20563;-80
2023/03/10 08:12:01;;;;;;;3.97;3.72;;;9.40;99.90;;;;;;5037472;28;20205;-79
2023/03/10 08:14:29;;;;;;;1.02;0.80;;;9.40;99.90;;;;;;5037816;28;20265;-80
2023/03/10 08:16:56;;;;;;;0.80;0.60;;;9.40;99.90;;;;;;5044708;28;20182;-82
2023/03/10 08:19:23;;;;;;;1.17;0.75;;;9.40;99.90;;;;;;5056780;28;20746;-82
2023/03/10 08:21:52;;;;;;;0.45;0.40;;;9.40;99.90;;;;;;5057281;28;20277;-81
2023/03/10 08:24:19;;;;;;;0.50;0.40;;;9.50;99.90;;;;;;5058333;28;20197;-85
2023/03/10 08:26:45;;;;;;;0.47;0.40;;;9.50;99.90;;;;;;5046493;28;20299;-81
2023/03/10 08:29:13;;;;;;;0.50;0.50;;;9.50;99.90;;;;;;5038256;28;20647;-79
2023/03/10 08:31:41;;;;;;;0.50;0.40;;;9.50;99.90;;;;;;5048679;28;20258;-80
2023/03/10 08:34:08;;;;;;;4.00;0.98;;;9.50;99.90;;;;;;5058116;28;20302;-81
2023/03/10 08:36:57;;;;;;;0.50;0.40;;;9.50;99.90;;;;;;5036738;28;20222;-80
2023/03/10 08:39:56;;;;;;;0.52;0.52;;;9.50;99.90;;;;;;5010236;28;20202;-80
2023/03/10 08:42:59;;;;;;;2.35;1.05;;;9.60;99.90;;;;;;5042392;28;20215;-83
2023/03/10 08:45:34;;;;;;;1.63;1.30;;;9.70;99.90;;;;;;5036987;28;20681;-81
2023/03/10 08:48:01;;;;;;;2.65;1.63;;;9.80;99.90;;;;;;5049488;28;20720;-83
2023/03/10 08:50:36;;;;;;;0.50;0.40;;;9.90;99.90;;;;;;5045342;28;20249;-82
2023/03/10 08:53:03;;;;;;;2.60;1.25;;;9.90;99.90;;;;;;5039224;28;20246;-81
2023/03/10 08:55:30;;;;;;;0.50;0.38;;;10.00;99.90;;;;;;5037510;28;20195;-82
2023/03/10 08:57:58;;;;;;;0.60;0.52;;;10.00;99.90;;;;;;5034895;28;20189;-81
2023/03/10 09:00:25;;;;;;;0.50;0.40;;;10.10;99.90;;;;;;5033405;28;20224;-83
2023/03/10 09:02:53;;;;;;;0.50;0.40;;;10.10;99.90;;;;;;5034902;28;20728;-83
2023/03/10 09:05:20;;;;;;;0.50;0.40;;;10.10;99.90;;;;;;5047895;28;20233;-83
2023/03/10 09:07:47;;;;;;;0.50;0.40;;;10.10;99.90;;;;;;5030928;28;20223;-80
2023/03/10 09:10:14;;;;;;;0.90;0.80;;;10.20;99.90;;;;;;5044380;28;20211;-82
2023/03/10 09:12:40;;;;;;;0.50;0.40;;;10.40;99.90;;;;;;5047647;28;20192;-82
2023/03/10 09:15:08;;;;;;;0.68;0.68;;;10.50;99.90;;;;;;5042009;28;20269;-82
2023/03/10 09:17:35;;;;;;;1.52;0.68;;;10.60;99.90;;;;;;5037494;28;20279;-81
2023/03/10 09:20:05;;;;;;;1.02;0.85;;;10.80;99.90;;;;;;5038177;28;20782;-82
2023/03/10 09:22:32;;;;;;;1.90;0.80;;;11.00;99.90;;;;;;5044431;28;20766;-80
2023/03/10 09:24:59;;;;;;;0.50;0.40;;;11.00;99.90;;;;;;5031357;28;20562;-81
2023/03/10 09:27:26;;;;;;;0.93;0.93;;;11.20;99.90;;;;;;5033156;28;20262;-80
2023/03/10 09:29:53;;;;;;;0.50;0.40;;;11.70;99.90;;;;;;5033169;28;20237;-81
2023/03/10 09:32:20;;;;;;;0.50;0.40;;;11.80;99.90;;;;;;5030794;28;20257;-78
2023/03/10 09:34:46;;;;;;;5.38;1.15;;;11.80;99.90;;;;;;5034619;28;20278;-79
2023/03/10 09:37:15;;;;;;;0.60;0.50;;;11.60;99.90;;;;;;5036731;28;20196;-81
2023/03/10 09:39:41;;;;;;;1.02;1.02;;;11.40;99.90;;;;;;5035657;28;20627;-83
2023/03/10 09:42:25;;;;;;;2.30;0.82;;;11.20;99.90;;;;;;5036175;28;20195;-81
2023/03/10 09:45:04;;;;;;;0.52;0.50;;;11.20;99.90;;;;;;5040931;28;20634;-83
2023/03/10 09:47:45;;;;;;;4.20;2.17;;;11.20;99.90;;;;;;5037855;28;20303;-81
2023/03/10 09:50:26;;;;;;;2.28;2.08;;;11.10;99.90;;;;;;5039467;28;20282;-80
2023/03/10 09:53:06;;;;;;;5.30;1.15;;;11.00;99.90;;;;;;5032607;28;20865;-82
2023/03/10 09:55:35;;;;;;;0.60;0.60;;;10.90;99.90;;;;;;5034948;28;20199;-81
2023/03/10 09:58:02;;;;;;;2.40;1.27;;;10.90;99.90;;;;;;5053755;28;20287;-82
2023/03/10 10:00:35;;;;;;;4.10;1.00;;;11.00;99.90;;;;;;5034128;28;20458;-83
2023/03/10 10:03:17;;;;;;;1.02;1.02;;;11.10;99.90;;;;;;5036935;28;20218;-80
2023/03/10 10:05:47;;;;;;;4.03;1.80;;;11.50;99.90;;;;;;5037213;28;20237;-82
2023/03/10 10:08:21;;;;;;;3.70;1.02;;;11.80;99.90;;;;;;5053677;28;20194;-83
2023/03/10 10:10:52;;;;;;;0.60;0.50;;;12.00;99.90;;;;;;5049393;28;20701;-83
2023/03/10 10:13:21;;;;;;;2.70;0.85;;;12.30;99.90;;;;;;5036577;28;20628;-83
2023/03/10 10:15:56;;;;;;;3.47;0.93;;;12.40;99.90;;;;;;5043930;28;20191;-80
2023/03/10 10:18:26;;;;;;;3.50;1.23;;;12.60;99.90;;;;;;5052437;28;20750;-82
2023/03/10 10:20:57;;;;;;;1.40;1.30;;;13.00;99.90;;;;;;5032098;28;20524;-82
2023/03/10 10:23:32;;;;;;;1.13;0.90;;;13.20;99.90;;;;;;5042508;28;20215;-81
2023/03/10 10:26:09;;;;;;;1.53;1.00;;;13.40;99.90;;;;;;5034177;28;20385;-79
2023/03/10 10:28:41;;;;;;;0.50;0.40;;;13.70;99.90;;;;;;5051481;28;20473;-82
2023/03/10 10:31:19;;;;;;;0.50;0.40;;;14.00;99.90;;;;;;5046436;28;20453;-81
2023/03/10 10:33:57;;;;;;;7.20;1.37;;;14.00;99.90;;;;;;5036873;28;21005;-79
2023/03/10 10:36:26;;;;;;;5.63;1.33;;;13.40;99.90;;;;;;5038013;28;20438;-81
2023/03/10 10:38:56;;;;;;;1.13;1.02;;;13.10;99.90;;;;;;5050196;28;20529;-80
2023/03/10 10:41:26;;;;;;;1.13;0.80;;;12.70;99.90;;;;;;5036119;28;20223;-80
2023/03/10 10:43:58;;;;;;;5.90;2.20;;;13.10;99.90;;;;;;5040514;28;20512;-80
2023/03/10 10:46:28;;;;;;;0.67;0.53;;;13.40;99.90;;;;;;5042863;28;20480;-80
2023/03/10 10:49:07;;;;;;;3.20;1.30;;;13.90;99.90;;;;;;5048348;28;20484;-80
2023/03/10 10:51:37;;;;;;;1.20;0.83;;;13.90;99.90;;;;;;5034841;28;20460;-77
2023/03/10 10:54:27;;;;;;;0.50;0.50;;;13.60;99.90;;;;;;5033102;28;20492;-77
2023/03/10 10:56:56;;;;;;;0.50;0.40;;;13.50;99.90;;;;;;5036873;28;20434;-76
2023/03/10 10:59:27;;;;;;;0.50;0.40;;;13.40;99.90;;;;;;5045273;28;20492;-78
2023/03/10 11:01:56;;;;;;;0.50;0.50;;;13.50;99.90;;;;;;5025793;28;20519;-78
2023/03/10 11:04:25;;;;;;;0.50;0.40;;;13.70;99.90;;;;;;5048510;28;20441;-78
2023/03/10 11:06:53;;;;;;;0.60;0.40;;;14.10;99.90;;;;;;5033309;28;20541;-82
2023/03/10 11:09:23;;;;;;;2.27;1.53;;;13.70;99.90;;;;;;5029118;28;20459;-79
2023/03/10 11:11:58;;;;;;;0.80;0.60;;;13.40;99.90;;;;;;5039883;28;20504;-80
2023/03/10 11:14:44;;;;;;;4.87;1.37;;;13.50;99.90;;;;;;5049233;28;20447;-80
2023/03/10 11:17:16;;;;;;;0.60;0.50;;;13.50;99.90;;;;;;5024776;28;20500;-84
2023/03/10 11:19:56;;;;;;;0.50;0.40;;;13.50;99.90;;;;;;5039983;28;20458;-83
2023/03/10 11:22:32;;;;;;;0.70;0.70;;;13.40;99.90;;;;;;5041993;28;20437;-83
2023/03/10 11:25:08;;;;;;;0.50;0.40;;;13.30;99.90;;;;;;5028398;28;20517;-82
2023/03/10 11:27:48;;;;;;;0.50;0.40;;;13.20;99.90;;;;;;5034945;28;21071;-83
2023/03/10 11:30:18;;;;;;;0.50;0.30;;;13.20;99.90;;;;;;5049926;28;20604;-83
2023/03/10 11:32:56;;;;;;;1.57;0.77;;;13.10;99.90;;;;;;5055483;28;20459;-80
2023/03/10 11:35:28;;;;;;;2.43;0.83;;;13.10;99.90;;;;;;5057483;28;20472;-82
2023/03/10 11:38:05;;;;;;;1.38;1.27;;;12.90;99.90;;;;;;5022483;28;20529;-83
2023/03/10 11:40:41;;;;;;;2.35;0.70;;;12.80;99.90;;;;;;5037169;28;20219;-81
2023/03/10 11:43:18;;;;;;;18.65;1.15;;;12.60;99.90;;;;;;5036074;28;20283;-82
2023/03/10 11:45:51;;;;;;;0.68;0.60;;;12.50;99.90;;;;;;5042634;28;20195;-82
2023/03/10 11:48:31;;;;;;;0.50;0.40;;;12.50;99.90;;;;;;5056393;28;20266;-84
2023/03/10 11:50:59;;;;;;;0.50;0.50;;;12.40;99.90;;;;;;5041623;28;20723;-85
2023/03/10 11:53:36;;;;;;;3.55;1.20;;;12.10;99.90;;;;;;5038261;28;20437;-82
2023/03/10 11:56:07;;;;;;;0.80;0.70;;;11.90;99.90;;;;;;5045829;28;20339;-80
2023/03/10 11:58:43;;;;;;;1.98;0.80;;;11.50;99.90;;;;;;5059791;28;20286;-80
2023/03/10 12:01:13;;;;;;;0.50;0.40;;;11.30;99.90;;;;;;5044582;28;20243;-80
2023/03/10 12:03:49;;;;;;;0.60;0.50;;;11.30;99.90;;;;;;5039603;28;20626;-79
2023/03/10 12:06:19;;;;;;;2.58;0.73;;;11.20;99.90;;;;;;5040247;28;20222;-81
2023/03/10 12:08:49;;;;;;;0.70;0.70;;;11.10;99.90;;;;;;5051498;28;20287;-81
2023/03/10 12:11:21;;;;;;;0.50;0.40;;;11.00;99.90;;;;;;5060942;28;20225;-83
2023/03/10 12:13:52;;;;;;;0.60;0.50;;;10.80;99.90;;;;;;5051306;28;20198;-81
2023/03/10 12:16:23;;;;;;;0.60;0.60;;;10.60;99.90;;;;;;5048879;28;20226;-80
2023/03/10 12:18:52;;;;;;;0.85;0.85;;;10.30;99.90;;;;;;5041741;28;20246;-80
2023/03/10 12:21:21;;;;;;;0.50;0.40;;;10.10;99.90;;;;;;5049362;28;20306;-81
2023/03/10 12:23:50;;;;;;;0.50;0.40;;;10.00;99.90;;;;;;5036423;28;20571;-82
2023/03/10 12:26:59;;;;;;;0.50;0.40;;;9.90;99.90;;;;;;5047807;28;20285;-81
2023/03/10 12:29:41;;;;;;;0.50;0.40;;;9.90;99.90;;;;;;5036565;28;20203;-83
2023/03/10 12:32:46;;;;;;;0.50;0.40;;;10.00;99.90;;;;;;5021055;28;20612;-82
2023/03/10 12:35:45;;;;;;;0.50;0.40;;;10.10;99.90;;;;;;5042291;28;20198;-82
2023/03/10 12:38:41;;;;;;;0.50;0.40;;;10.20;99.90;;;;;;5033107;28;20203;-83
2023/03/10 12:41:09;;;;;;;4.82;0.75;;;10.20;99.90;;;;;;5038827;28;20293;-81
2023/03/10 12:44:07;;;;;;;0.50;0.40;;;10.10;99.90;;;;;;5051265;28;20357;-81
2023/03/10 12:46:47;;;;;;;0.50;0.40;;;9.90;99.90;;;;;;5050913;28;20720;-80
2023/03/10 12:49:31;;;;;;;0.50;0.40;;;9.90;99.90;;;;;;5048087;28;20201;-82
2023/03/10 12:52:14;;;;;;;1.45;1.35;;;9.90;99.90;;;;;;5042472;28;20190;-83
2023/03/10 12:54:49;;;;;;;0.63;0.60;;;9.90;99.90;;;;;;5054971;28;20285;-82
2023/03/10 12:57:21;;;;;;;0.50;0.40;;;9.90;99.90;;;;;;5045916;28;20250;-84
2023/03/10 12:59:59;;;;;;;0.50;0.40;;;9.90;99.90;;;;;;5045649;28;20214;-82
2023/03/10 13:02:33;;;;;;;0.50;0.47;;;9.90;99.90;;;;;;5057925;28;20229;-82
2023/03/10 13:05:20;;;;;;;0.50;0.50;;;9.90;99.90;;;;;;5053375;28;20221;-87
2023/03/10 13:07:51;;;;;;;0.50;0.40;;;9.90;99.90;;;;;;5033766;28;20686;-86
2023/03/10 13:10:21;;;;;;;0.50;0.40;;;9.80;99.90;;;;;;5040940;28;20230;-83